Airfield :
LOGIN :

Register | Disclaimer

   EN    FR    IT 

 










Legend :    VFR   Marginal VFR   IFR   Intensive IFR   Very Intensive IFR
Visi :
Ceiling :
>= 8 km
>= 3000ft
5 to 8 km
1000 to 3000 ft
1500m to 5 km
500 to 1000 ft
800 to 1500m
200 to 500 ft
< 800m
< 200 ft
Symbols :   Thunderstorms  Fog  Heavy snow  Heavy precipitations  Wind > 20 kt
SIGMETs :     Misc.  Thunderstorms  Icing  Turbulence  Mountain Waves  Volcanic Ashes







- Airport Elevation : 333 ft


LIPL - Ghedi Brescia (Mil)

CURRENT METAR :
  • 262255Z 06005KT 7000 NSC 21/18 Q1019 RMK SCT SCT200 VIS MIN 7000 WIND THR31 06004KT WIND THR13 03002KT WHT

EXPIRED METARs :
  • 262155Z 07004KT 7000 NSC 21/18 Q1019 RMK SCT SCT200 VIS MIN 7000 WIND THR31 06005KT WIND THR13 04001KT WHT
  • 262055Z 34001KT 7000 NSC 22/18 Q1019 RMK BKN BKN200 VIS MIN 7000 WIND THR31 32002KT WIND THR13 00000KT WHT

Expired Forecast.
No reported NOTAMs for that airfield.
3 SIGMETs reported for the Milano FIR (LIMM) :
 
Embedded thunderstorms
LIMM SIGMET 9 VALID 262344/270244 LIIP
LIMM MILANO FIR EMBD TS OBS N OF LINE N4634 E01020 - N4627 E01354 TOP FL380 MOV ENE WKN=
Severe turbulence
LIMM SIGMET 8 VALID 262150/270150 LIIP
LIMM MILANO FIR SEV TURB FCST S OF LINE N4406 E00737 - N4415 E01359 FL280/410 STNR NC=
Embedded thunderstorms
LIMM SIGMET 7 VALID 262144/262344 LIIP
LIMM MILANO FIR EMBD TS OBS N OF LINE N4557 E00858 - N4641 E01237 TOP FL380 MOV ENE WKN=



MET'MAP, your aeronautical weather chart ! - Copyright ORBIFLY December 2007 - Disclaimer

ORBIFLY MET'MAP TEAM :

Programming & Development : Alexandra Zaïnal
Concept & Development : Baudouin d'Aumeries
Co-Development & Prog : Marc-Olivier Méhu
Technical & hardware support : Manuel Goepfert

Contact : metmap@orbifly.com




SOURCES & CREDITS :

   NOAA